Latest Weather Observations for Minnipa RS

IDS60801

Issued at 10:01 am CST Monday 21 August 2017 (issued every 30 minutes, with the page automatically refreshed every 10 minutes)

About weather observations | Map of weather stations | Latest weather observations for SA | Other Formats
Station Details ID: 018195 Name: MINNIPA PIRSA Lat: -32.84 Lon: 135.15 Height: 165.0 m
Data from the previous 72 hours. | See also: Recent months at Minnipa RS
Date/Time
CST
Temp
°C
App
Temp
°C
Dew
Point
°C
Rel
Hum
%
Delta-T
°C
Wind Press
QNH
hPa
Press
MSL
hPa
Rain since
9am
mm
Dir  Spd
km/h
Gust
km/h
Spd
kts
Gust
kts
21/10:00am 13.8 7.6 10.0 78 2.0 SW 33 43 18 23 1013.9 1013.9 0.0
21/09:30am 13.8 7.7 9.6 76 2.2 WSW 32 46 17 25 1013.7 1013.7 0.0
21/09:00am 12.7 6.8 9.2 79 1.8 WSW 30 48 16 26 1013.2 1013.2 0.8
21/08:59am 12.6 6.7 9.1 79 1.8 WSW 30 48 16 26 1013.3 1013.3 0.8
21/08:30am 12.6 6.7 8.9 78 1.9 WSW 30 43 16 23 1012.6 1012.6 0.8
21/08:00am 12.0 6.5 9.2 83 1.4 WSW 28 39 15 21 1012.1 1012.1 0.8
21/07:30am 11.6 6.6 9.7 88 1.0 WSW 26 37 14 20 1011.4 1011.4 0.8
21/07:00am 11.4 6.1 9.8 90 0.8 WSW 28 37 15 20 1010.7 1010.8 0.8
21/06:30am 11.2 6.6 9.6 90 0.8 W 24 35 13 19 1010.1 1010.1 0.8
21/06:00am 11.2 5.3 9.1 87 1.1 W 30 39 16 21 1009.6 1009.6 0.8
21/05:30am 11.5 6.1 9.4 87 1.1 W 28 39 15 21 1009.2 1009.2 0.8
21/05:00am 11.4 6.4 9.5 88 1.0 W 26 39 14 21 1009.0 1009.0 0.8
21/04:30am 11.2 6.2 9.5 89 0.9 W 26 35 14 19 1008.7 1008.7 0.8
21/04:00am 11.3 6.5 9.0 86 1.2 WNW 24 35 13 19 1008.4 1008.4 0.6
21/03:30am 10.8 6.3 8.6 86 1.1 WNW 22 32 12 17 1008.4 1008.4 0.6
21/03:00am 11.2 6.5 9.3 88 1.0 WNW 24 32 13 17 1008.3 1008.3 0.6
21/02:30am 11.3 6.8 9.9 91 0.7 NW 24 35 13 19 1008.4 1008.4 0.6
21/02:00am 11.3 6.7 9.7 90 0.8 NW 24 32 13 17 1008.6 1008.6 0.6
21/01:30am 11.1 6.5 9.5 90 0.8 NW 24 30 13 16 1008.7 1008.7 0.6
21/01:00am 10.9 5.3 8.8 87 1.0 NW 28 48 15 26 1008.9 1008.9 0.6
21/12:38am 11.5 5.8 8.4 81 1.5 NW 28 46 15 25 1009.1 1009.1 0.2
21/12:30am 11.3 6.2 7.8 79 1.7 NW 24 33 13 18 1009.1 1009.1 0.2
21/12:00am 11.5 6.0 5.8 68 2.7 NNW 24 32 13 17 1009.4 1009.4 0.2
 
Date/Time
CST
Temp
°C
App
Temp
°C
Dew
Point
°C
Rel
Hum
%
Delta-T
°C
Wind Press
QNH
hPa
Press
MSL
hPa
Rain since
9am
mm
Dir  Spd
km/h
Gust
km/h
Spd
kts
Gust
kts
20/11:30pm 11.5 5.0 4.9 64 3.0 NNW 28 39 15 21 1009.7 1009.7 0.2
20/11:00pm 10.7 5.5 3.3 60 3.3 N 20 24 11 13 1010.0 1010.0 0.2
20/10:30pm 10.6 4.8 2.4 57 3.5 NNE 22 28 12 15 1010.4 1010.5 0.2
20/10:00pm 10.7 4.4 1.5 53 3.9 NNE 24 30 13 16 1010.6 1010.7 0.2
20/09:30pm 10.9 4.5 0.9 50 4.2 NNE 24 30 13 16 1010.7 1010.8 0.2
20/09:00pm 11.4 5.8 1.4 50 4.3 NNE 20 26 11 14 1011.3 1011.3 0.2
20/08:30pm 10.6 5.0 1.2 52 3.9 N 20 26 11 14 1011.3 1011.3 0.2
20/08:00pm 11.2 5.6 1.2 50 4.2 NNW 20 28 11 15 1011.8 1011.8 0.2
20/07:30pm 10.1 5.2 1.7 56 3.6 NW 17 22 9 12 1011.7 1011.7 0.2
20/07:00pm 10.8 4.9 1.9 54 3.8 N 22 30 12 16 1010.9 1010.9 0.2
20/06:30pm 11.1 4.8 1.6 52 4.0 NNE 24 32 13 17 1010.6 1010.7 0.2
20/06:00pm 11.9 4.8 1.5 49 4.5 NNE 28 37 15 20 1010.6 1010.7 0.2
20/05:30pm 12.9 4.5 1.3 45 5.0 NNE 35 46 19 25 1010.5 1010.6 0.2
20/05:00pm 13.1 5.1 1.5 45 5.0 NNE 33 44 18 24 1011.0 1011.0 0.2
20/04:30pm 13.2 5.2 1.5 45 5.1 NNE 33 52 18 28 1010.9 1010.9 0.2
20/04:27pm 13.3 5.2 1.3 44 5.2 NNE 33 52 18 28 1011.0 1011.0 0.2
20/04:00pm 12.9 5.2 2.2 48 4.7 N 32 43 17 23 1011.4 1011.4 0.2
20/03:30pm 13.1 3.6 1.5 45 5.0 NNE 41 56 22 30 1010.9 1010.9 0.2
20/03:20pm 13.4 3.4 2.0 46 5.0 NNE 44 63 24 34 1010.9 1010.9 0.2
20/03:00pm 13.2 2.5 2.7 49 4.7 NNE 48 61 26 33 1010.9 1010.9 0.2
20/02:30pm 12.4 2.4 2.0 49 4.5 NNE 44 65 24 35 1010.6 1010.7 0.2
20/02:01pm 12.1 1.4 2.8 53 4.1 NNE 48 69 26 37 1011.1 1011.1 0.2
20/02:00pm 12.1 1.5 3.1 54 4.0 NNE 48 63 26 34 1011.1 1011.1 0.2
20/01:53pm 12.4 2.6 3.1 53 4.1 NNE 44 63 24 34 1011.4 1011.4 0.2
20/01:30pm 12.2 2.6 3.2 54 4.0 NNE 43 57 23 31 1011.6 1011.6 0.2
20/01:16pm 12.4 3.6 3.6 55 4.0 NNE 39 57 21 31 1011.8 1011.8 0.2
20/01:00pm 12.0 5.4 5.9 66 2.9 N 30 43 16 23 1012.3 1012.3 0.2
20/12:40pm 10.6 2.9 5.2 69 2.5 NNE 35 54 19 29 1012.6 1012.6 0.2
20/12:30pm 10.5 1.8 4.0 64 2.9 NNE 39 50 21 27 1011.8 1011.8 0.0
20/12:02pm 11.2 1.0 3.3 58 3.5 NNE 46 65 25 35 1013.5 1013.5 0.0
20/12:00pm 11.3 0.7 2.9 56 3.7 NNE 48 65 26 35 1013.4 1013.4 0.0
20/11:30am 11.5 1.3 3.0 56 3.7 NNE 46 67 25 36 1014.8 1014.8 0.0
20/11:25am 12.0 2.1 2.7 53 4.1 NNE 44 67 24 36 1014.9 1014.9 0.0
20/11:00am 11.8 3.3 3.1 55 3.9 NNE 37 52 20 28 1015.7 1015.8 0.0
20/10:30am 11.1 0.8 2.9 57 3.6 NNE 46 61 25 33 1015.6 1015.7 0.0
20/10:05am 11.5 1.0 3.8 59 3.5 NNE 48 69 26 37 1015.4 1015.5 0.0
20/10:00am 11.0 0.9 3.8 61 3.2 NE 46 63 25 34 1015.5 1015.6 0.0
20/09:30am 9.7 1.4 4.3 69 2.4 NE 37 50 20 27 1016.9 1017.0 0.0
20/09:00am 9.4 1.9 4.2 70 2.3 NE 33 43 18 23 1018.5 1018.5 1.4
20/08:30am 9.0 2.5 4.6 74 2.0 NNE 28 35 15 19 1019.7 1019.7 1.2
20/08:00am 10.0 3.3 3.5 64 2.9 N 28 39 15 21 1020.3 1020.3 0.4
20/07:30am 10.9 3.9 2.0 54 3.8 NNE 28 35 15 19 1018.8 1018.8 0.0
20/07:00am 10.8 4.5 1.4 52 4.0 NNE 24 32 13 17 1018.4 1018.4 0.0
20/06:30am 10.8 3.7 1.6 53 3.9 NNE 28 37 15 20 1018.1 1018.1 0.0
20/06:00am 9.9 2.9 2.0 58 3.3 NE 28 35 15 19 1017.9 1017.9 0.0
20/05:30am 9.9 3.7 2.3 59 3.2 NNE 24 32 13 17 1019.0 1019.0 0.0
20/05:00am 9.8 3.3 2.9 62 3.0 NE 26 35 14 19 1018.8 1018.8 0.0
20/04:30am 8.5 2.5 3.4 70 2.2 NE 24 28 13 15 1018.7 1018.7 0.0
20/04:00am 7.6 2.0 3.3 74 1.8 ENE 22 28 12 15 1019.0 1019.0 0.0
20/03:30am 7.9 1.2 3.6 74 1.9 ENE 28 33 15 18 1019.3 1019.3 0.0
20/03:00am 7.7 1.3 3.2 73 1.9 ENE 26 32 14 17 1020.1 1020.1 0.0
20/02:30am 8.0 1.6 3.1 71 2.1 ENE 26 33 14 18 1020.7 1020.8 0.0
20/02:00am 8.1 1.6 2.8 69 2.3 ENE 26 32 14 17 1021.2 1021.3 0.0
20/01:30am 8.4 1.9 2.4 66 2.5 ENE 26 32 14 17 1021.7 1021.8 0.0
20/01:00am 9.0 2.8 2.3 63 2.8 ENE 24 32 13 17 1022.3 1022.4 0.0
20/12:30am 9.6 3.0 2.2 60 3.1 ENE 26 33 14 18 1022.6 1022.7 0.0
20/12:00am 9.5 3.8 2.6 62 2.9 ENE 22 28 12 15 1023.3 1023.4 0.0
 
Date/Time
CST
Temp
°C
App
Temp
°C
Dew
Point
°C
Rel
Hum
%
Delta-T
°C
Wind Press
QNH
hPa
Press
MSL
hPa
Rain since
9am
mm
Dir  Spd
km/h
Gust
km/h
Spd
kts
Gust
kts
19/11:30pm 9.6 4.3 2.9 63 2.9 ENE 20 24 11 13 1023.9 1023.9 0.0
19/11:00pm 10.0 4.7 3.1 62 3.0 NE 20 26 11 14 1024.3 1024.3 0.0
19/10:30pm 10.7 5.1 3.3 60 3.2 NE 22 28 12 15 1024.3 1024.3 0.0
19/10:00pm 10.7 5.1 3.3 60 3.3 NE 22 28 12 15 1024.8 1024.8 0.0
19/09:30pm 10.1 5.0 2.9 61 3.1 ENE 19 22 10 12 1025.2 1025.2 0.0
19/09:00pm 10.6 6.2 2.9 59 3.3 ENE 15 19 8 10 1025.3 1025.3 0.0
19/08:30pm 10.8 6.4 2.9 58 3.4 E 15 17 8 9 1025.3 1025.3 0.0
19/08:00pm 10.9 6.9 3.0 58 3.5 E 13 17 7 9 1025.4 1025.4 0.0
19/07:30pm 10.4 6.8 3.2 61 3.1 ENE 11 13 6 7 1025.4 1025.4 0.0
19/07:00pm 11.5 8.0 3.3 57 3.6 ENE 11 13 6 7 1025.1 1025.1 0.0
19/06:30pm 13.2 9.6 3.0 50 4.5 NE 11 13 6 7 1025.4 1025.4 0.0
19/06:00pm 14.0 10.4 3.2 48 4.9 ENE 11 13 6 7 1025.1 1025.1 0.0
19/05:30pm 15.4 11.7 2.6 42 5.8 ENE 11 15 6 8 1024.9 1024.9 0.0
19/05:00pm 16.4 11.3 0.5 34 6.9 E 17 20 9 11 1024.9 1024.9 0.0
19/04:30pm 17.4 12.3 0.6 32 7.4 E 17 24 9 13 1025.2 1025.2 0.0
19/04:00pm 17.7 13.0 0.8 32 7.5 E 15 20 8 11 1025.5 1025.5 0.0
19/03:30pm 17.4 12.7 1.0 33 7.2 ENE 15 22 8 12 1025.7 1025.8 0.0
19/03:00pm 17.4 12.3 1.0 33 7.2 E 17 26 9 14 1025.8 1025.9 0.0
19/02:30pm 17.2 12.2 1.2 34 7.1 E 17 24 9 13 1026.1 1026.2 0.0
19/02:00pm 16.9 11.7 2.5 38 6.6 ENE 19 24 10 13 1026.6 1026.7 0.0
19/01:30pm 16.9 12.3 3.9 42 6.1 ENE 17 22 9 12 1027.0 1027.1 0.0
19/01:00pm 16.2 11.6 3.6 43 5.9 ENE 17 26 9 14 1027.7 1027.8 0.0
19/12:30pm 15.0 10.1 2.2 42 5.7 ENE 17 26 9 14 1028.6 1028.7 0.0
19/12:00pm 14.8 10.6 3.9 48 5.0 ENE 15 24 8 13 1029.3 1029.4 0.0
19/11:30am 13.8 9.8 4.7 54 4.2 ENE 15 22 8 12 1029.9 1029.9 0.0
19/11:00am 13.1 9.0 4.5 56 4.0 ENE 15 22 8 12 1030.2 1030.2 0.0
19/10:30am 12.5 8.1 5.0 60 3.5 ENE 17 22 9 12 1030.6 1030.6 0.0
19/10:00am 11.8 8.0 5.7 66 2.9 ENE 15 19 8 10 1030.7 1030.8 0.0
19/09:30am 10.8 7.2 5.1 68 2.6 NE 13 19 7 10 1031.0 1031.1 0.0
19/09:00am 9.7 5.7 4.9 72 2.2 ENE 15 19 8 10 1030.9 1031.0 0.0
19/08:30am 8.6 4.9 4.6 76 1.8 ENE 13 17 7 9 1030.8 1030.9 0.0
19/08:00am 6.5 2.3 3.7 82 1.2 NE 15 17 8 9 1030.5 1030.5 0.0
19/07:30am 5.1 0.3 2.8 85 0.9 NE 17 19 9 10 1030.1 1030.1 0.0
19/07:00am 4.7 0.2 2.4 85 0.9 ENE 15 17 8 9 1029.6 1029.7 0.0
19/06:30am 4.6 0.2 2.6 87 0.8 ENE 15 17 8 9 1029.4 1029.5 0.0
19/06:00am 4.9 0.5 2.9 87 0.8 ENE 15 17 8 9 1029.0 1029.1 0.0
19/05:30am 5.3 1.3 2.7 83 1.1 ENE 13 17 7 9 1028.7 1028.8 0.0
19/05:00am 5.7 1.7 3.0 83 1.1 E 13 15 7 8 1028.6 1028.7 0.0
19/04:30am 5.5 1.2 3.2 85 1.0 E 15 17 8 9 1028.4 1028.5 0.0
19/04:00am 5.7 1.4 3.0 83 1.1 ENE 15 17 8 9 1028.3 1028.4 0.0
19/03:30am 5.9 2.0 3.2 83 1.1 E 13 15 7 8 1028.3 1028.4 0.0
19/03:00am 5.8 1.8 3.1 83 1.1 ENE 13 15 7 8 1028.5 1028.6 0.0
19/02:30am 6.2 2.3 3.5 83 1.1 E 13 15 7 8 1028.7 1028.8 0.0
19/02:00am 6.6 2.8 4.1 84 1.1 E 13 15 7 8 1028.7 1028.8 0.0
19/01:30am 6.5 2.7 3.8 83 1.1 ESE 13 15 7 8 1028.8 1028.9 0.0
19/01:00am 6.5 3.0 3.7 82 1.2 ESE 11 13 6 7 1028.9 1029.0 0.0
19/12:30am 6.7 3.3 3.9 82 1.2 ESE 11 11 6 6 1028.9 1029.0 0.0
19/12:00am 6.6 3.4 3.2 79 1.4 SE 9 11 5 6 1029.0 1029.1 0.0
 
Date/Time
CST
Temp
°C
App
Temp
°C
Dew
Point
°C
Rel
Hum
%
Delta-T
°C
Wind Press
QNH
hPa
Press
MSL
hPa
Rain since
9am
mm
Dir  Spd
km/h
Gust
km/h
Spd
kts
Gust
kts
18/11:30pm 6.7 3.6 3.5 80 1.4 ESE 9 9 5 5 1029.2 1029.3 0.0
18/11:00pm 6.4 3.6 3.4 81 1.3 ESE 7 9 4 5 1029.2 1029.3 0.0
18/10:30pm 6.9 4.2 3.7 80 1.4 SE 7 11 4 6 1029.4 1029.5 0.0
18/10:00pm 6.4 3.6 3.0 79 1.4 SE 7 9 4 5 1029.4 1029.5 0.0
18/09:30pm 7.2 4.5 3.6 78 1.5 SE 7 9 4 5 1029.3 1029.4 0.0
18/09:00pm 7.4 4.3 3.6 77 1.6 SE 9 9 5 5 1029.1 1029.2 0.0
18/08:30pm 8.7 5.4 4.3 74 1.9 S 11 13 6 7 1029.0 1029.1 0.0
18/08:00pm 9.1 5.7 4.1 71 2.2 S 11 13 6 7 1028.8 1028.9 0.0
18/07:30pm 9.1 6.1 4.3 72 2.1 S 9 13 5 7 1028.6 1028.7 0.0
18/07:00pm 10.0 6.7 4.4 68 2.5 SSW 11 17 6 9 1028.3 1028.4 0.0
18/06:30pm 10.7 7.0 4.6 66 2.7 S 13 19 7 10 1028.0 1028.1 0.0
18/06:00pm 11.7 7.3 4.7 62 3.2 SSW 17 20 9 11 1027.7 1027.8 0.0
18/05:30pm 12.9 8.2 5.1 59 3.6 SSW 19 26 10 14 1027.4 1027.5 0.0
18/05:00pm 13.5 8.7 5.4 58 3.8 SSW 20 26 11 14 1027.1 1027.2 0.0
18/04:30pm 14.5 9.6 3.9 49 4.9 SSW 19 30 10 16 1026.8 1026.9 0.0
18/04:00pm 15.2 9.6 3.7 46 5.3 SSW 22 30 12 16 1026.5 1026.6 0.0
18/03:30pm 15.5 10.3 3.6 45 5.5 SSW 20 28 11 15 1026.5 1026.6 0.0
18/03:00pm 15.8 10.8 4.8 48 5.2 SW 20 28 11 15 1026.4 1026.5 0.0
18/02:30pm 15.8 10.4 4.5 47 5.3 SW 22 32 12 17 1026.3 1026.4 0.0
18/02:00pm 15.4 9.8 5.3 51 4.8 SW 24 32 13 17 1026.3 1026.4 0.0
18/01:30pm 15.5 10.3 3.6 45 5.5 SW 20 28 11 15 1026.4 1026.5 0.0
18/01:00pm 15.5 10.1 4.3 47 5.3 SW 22 30 12 16 1026.8 1026.9 0.0
18/12:30pm 15.1 9.1 3.3 45 5.4 SW 24 35 13 19 1027.0 1027.1 0.0
18/12:00pm 14.9 9.1 2.1 42 5.7 SW 22 30 12 16 1027.2 1027.3 0.0
18/11:30am 14.8 9.4 4.5 50 4.8 SW 22 32 12 17 1027.3 1027.4 0.0
18/11:00am 14.4 9.1 5.0 53 4.4 SW 22 32 12 17 1027.3 1027.4 0.0
18/10:30am 13.9 8.4 3.9 51 4.6 SW 22 32 12 17 1027.2 1027.3 0.0

Other Formats:

Comma delimited format used in spreadsheet applications
http://www.bom.gov.au/fwo/IDS60801/IDS60801.95662.axf

JavaScript Object Notation format (JSON) in row-major order
http://www.bom.gov.au/fwo/IDS60801/IDS60801.95662.json